Time;durP1;ratioP1;P1;durP2;ratioP2;P2;SDS_P1;SDS_P2;PMS_P1;PMS_P2;Temp;Humidity;BMP_temperature;BMP_pressure;BME280_temperature;BME280_humidity;BME280_pressure;Samples;Min_cycle;Max_cycle;Signal;HPM_P1;HPM_P2
2021/11/20 00:01:49;;;;;;;63.08;32.50;;;11.40;99.90;;;;;;5049277;28;20025;-62
2021/11/20 00:04:15;;;;;;;65.93;34.92;;;11.40;99.90;;;;;;5066219;28;20029;-61
2021/11/20 00:06:44;;;;;;;72.88;35.60;;;11.40;99.90;;;;;;5053439;28;20033;-62
2021/11/20 00:09:13;;;;;;;62.15;34.08;;;11.40;99.90;;;;;;5050156;28;20494;-62
2021/11/20 00:11:40;;;;;;;66.50;34.00;;;11.40;99.90;;;;;;5057747;28;20036;-60
2021/11/20 00:14:10;;;;;;;68.13;35.13;;;11.40;99.90;;;;;;5051931;28;20036;-62
2021/11/20 00:16:37;;;;;;;74.60;36.80;;;11.30;99.90;;;;;;5059011;28;20028;-63
2021/11/20 00:19:03;;;;;;;74.20;36.42;;;11.30;99.90;;;;;;5062680;28;20103;-60
2021/11/20 00:21:34;;;;;;;67.03;34.33;;;11.30;99.90;;;;;;5058556;28;20028;-60
2021/11/20 00:24:03;;;;;;;66.60;34.22;;;11.30;99.90;;;;;;5067722;28;20028;-62
2021/11/20 00:26:34;;;;;;;64.40;35.17;;;11.40;99.90;;;;;;5065782;28;20482;-61
2021/11/20 00:29:27;;;;;;;64.70;35.85;;;11.40;99.90;;;;;;5053297;28;20445;-63
2021/11/20 00:32:01;;;;;;;68.28;34.40;;;11.40;99.90;;;;;;5062702;28;20480;-60
2021/11/20 00:34:29;;;;;;;71.63;36.70;;;11.40;99.90;;;;;;5050307;28;20289;-63
2021/11/20 00:36:56;;;;;;;66.25;33.50;;;11.40;99.90;;;;;;5044308;28;20040;-62
2021/11/20 00:39:26;;;;;;;72.00;36.35;;;11.40;99.90;;;;;;5059074;28;20029;-62
2021/11/20 00:41:52;;;;;;;69.82;36.05;;;11.40;99.90;;;;;;5045908;28;20053;-62
2021/11/20 00:44:19;;;;;;;69.38;32.30;;;11.30;99.90;;;;;;5050147;28;20119;-62
2021/11/20 00:46:46;;;;;;;69.72;34.95;;;11.30;99.90;;;;;;5050085;28;20445;-62
2021/11/20 00:49:12;;;;;;;71.68;37.50;;;11.30;99.90;;;;;;5049249;28;20390;-62
2021/11/20 00:51:38;;;;;;;68.20;34.78;;;11.20;99.90;;;;;;5057369;28;20040;-62
2021/11/20 00:54:05;;;;;;;66.93;36.22;;;11.20;99.90;;;;;;5063296;28;20091;-62
2021/11/20 00:56:32;;;;;;;67.82;35.38;;;11.20;99.90;;;;;;5070950;28;20036;-61
2021/11/20 00:58:58;;;;;;;69.80;36.97;;;11.30;99.90;;;;;;5056829;28;20066;-63
2021/11/20 01:01:29;;;;;;;69.40;35.45;;;11.30;99.90;;;;;;5061549;28;20064;-63
2021/11/20 01:03:55;;;;;;;76.55;37.50;;;11.30;99.90;;;;;;5053098;28;20031;-62
2021/11/20 01:06:21;;;;;;;71.00;36.08;;;11.30;99.90;;;;;;5051482;28;20104;-63
2021/11/20 01:08:48;;;;;;;75.30;36.90;;;11.30;99.90;;;;;;5050962;28;20033;-63
2021/11/20 01:11:20;;;;;;;69.95;35.72;;;11.30;99.90;;;;;;5050878;28;20075;-63
2021/11/20 01:13:47;;;;;;;69.60;35.38;;;11.30;99.90;;;;;;5057050;28;20043;-64
2021/11/20 01:16:13;;;;;;;70.00;35.10;;;11.30;99.90;;;;;;5054363;28;20024;-62
2021/11/20 01:18:40;;;;;;;70.57;35.22;;;11.30;99.90;;;;;;5060177;28;20037;-63
2021/11/20 01:21:06;;;;;;;79.22;38.22;;;11.30;99.90;;;;;;5050904;28;20122;-62
2021/11/20 01:23:32;;;;;;;72.22;35.80;;;11.20;99.90;;;;;;5051101;28;20028;-63
2021/11/20 01:25:59;;;;;;;71.28;35.30;;;11.20;99.90;;;;;;5056344;28;20076;-63
2021/11/20 01:28:28;;;;;;;74.55;36.33;;;11.20;99.90;;;;;;5049341;28;20021;-63
2021/11/20 01:30:54;;;;;;;75.45;37.00;;;11.20;99.90;;;;;;5052878;28;20032;-63
2021/11/20 01:33:20;;;;;;;73.40;36.28;;;11.10;99.90;;;;;;5065575;28;20029;-63
2021/11/20 01:35:46;;;;;;;74.20;36.42;;;11.20;99.90;;;;;;5051015;28;20032;-64
2021/11/20 01:38:12;;;;;;;71.55;35.22;;;11.10;99.90;;;;;;5051169;28;20052;-59
2021/11/20 01:40:41;;;;;;;71.35;36.30;;;11.10;99.90;;;;;;5050183;28;20453;-63
2021/11/20 01:43:08;;;;;;;77.05;38.10;;;11.10;99.90;;;;;;5051552;28;20029;-62
2021/11/20 01:45:48;;;;;;;76.45;37.88;;;11.10;99.90;;;;;;5055970;28;20079;-61
2021/11/20 01:48:37;;;;;;;75.22;36.38;;;11.10;99.90;;;;;;5055005;28;20434;-63
2021/11/20 01:51:25;;;;;;;77.82;38.13;;;11.10;99.90;;;;;;5054502;28;20051;-62
2021/11/20 01:54:37;;;;;;;75.97;35.25;;;11.10;99.90;;;;;;5056996;28;20021;-62
2021/11/20 01:57:15;;;;;;;72.55;35.45;;;11.10;99.90;;;;;;5071530;28;20021;-64
2021/11/20 02:00:13;;;;;;;77.63;37.58;;;11.10;99.90;;;;;;5052791;28;20501;-63
2021/11/20 02:02:59;;;;;;;74.15;35.80;;;11.10;99.90;;;;;;5053276;28;20458;-64
2021/11/20 02:05:47;;;;;;;70.00;34.25;;;11.10;99.90;;;;;;5055545;28;20061;-63
2021/11/20 02:08:40;;;;;;;75.63;36.72;;;11.10;99.90;;;;;;5053188;28;20031;-61
2021/11/20 02:11:18;;;;;;;75.65;36.33;;;11.10;99.90;;;;;;5061102;28;20112;-62
2021/11/20 02:13:43;;;;;;;76.38;36.10;;;11.20;99.90;;;;;;5049284;28;20036;-64
2021/11/20 02:16:12;;;;;;;70.50;36.25;;;11.20;99.90;;;;;;5055217;28;20025;-61
2021/11/20 02:18:43;;;;;;;72.72;35.83;;;11.20;99.90;;;;;;5055449;28;20051;-63
2021/11/20 02:21:44;;;;;;;78.55;37.40;;;11.10;99.90;;;;;;5054652;28;20029;-63
2021/11/20 02:24:09;;;;;;;73.60;36.33;;;11.20;99.90;;;;;;5062678;28;20102;-63
2021/11/20 02:26:35;;;;;;;79.88;38.17;;;11.10;99.90;;;;;;5054328;28;20475;-63
2021/11/20 02:29:06;;;;;;;70.38;33.83;;;11.10;99.90;;;;;;5065397;28;20058;-63
2021/11/20 02:31:39;;;;;;;70.82;35.00;;;11.20;99.90;;;;;;5053285;28;20025;-62
2021/11/20 02:34:04;;;;;;;75.07;35.13;;;11.20;99.90;;;;;;5065503;28;20024;-59
2021/11/20 02:36:30;;;;;;;77.68;36.58;;;11.10;99.90;;;;;;5053861;28;20386;-64
2021/11/20 02:38:57;;;;;;;68.65;31.30;;;11.20;99.90;;;;;;5068295;22;20056;-66
2021/11/20 02:41:26;;;;;;;70.88;33.28;;;11.20;99.90;;;;;;5049002;28;20025;-65
2021/11/20 02:43:53;;;;;;;75.97;35.95;;;11.10;99.90;;;;;;5051708;28;20560;-65
2021/11/20 02:46:22;;;;;;;69.15;33.72;;;11.10;99.90;;;;;;5049883;28;20025;-63
2021/11/20 02:48:48;;;;;;;73.10;35.95;;;11.10;99.90;;;;;;5050530;28;20120;-65
2021/11/20 02:51:24;;;;;;;71.05;33.13;;;11.10;99.90;;;;;;5051219;28;20025;-64
2021/11/20 02:53:59;;;;;;;68.35;32.83;;;11.20;99.90;;;;;;5046762;28;20025;-64
2021/11/20 02:56:41;;;;;;;79.35;34.83;;;11.20;99.90;;;;;;5048763;28;20617;-65
2021/11/20 02:59:07;;;;;;;65.93;32.90;;;11.20;99.90;;;;;;5041491;28;20025;-64
2021/11/20 03:01:35;;;;;;;76.38;35.55;;;11.20;99.90;;;;;;5050084;28;20368;-65
2021/11/20 03:04:06;;;;;;;70.57;35.05;;;11.20;99.90;;;;;;5050272;28;20100;-65
2021/11/20 03:06:33;;;;;;;73.63;35.30;;;11.20;99.90;;;;;;5050748;28;20037;-64
2021/11/20 03:08:59;;;;;;;72.80;34.70;;;11.10;99.90;;;;;;5043393;28;20025;-66
2021/11/20 03:11:24;;;;;;;73.57;35.28;;;11.10;99.90;;;;;;5050956;28;20078;-65
2021/11/20 03:13:53;;;;;;;72.97;33.85;;;11.10;99.90;;;;;;5048749;28;20064;-65
2021/11/20 03:16:20;;;;;;;74.47;33.38;;;11.10;99.90;;;;;;5049338;28;20028;-65
2021/11/20 03:18:45;;;;;;;72.35;33.78;;;11.00;99.90;;;;;;5046895;28;20029;-64
2021/11/20 03:21:12;;;;;;;82.70;35.60;;;11.00;99.90;;;;;;5048356;28;20029;-65
2021/11/20 03:23:44;;;;;;;72.70;36.92;;;10.90;99.90;;;;;;5043887;28;20098;-65
2021/11/20 03:26:10;;;;;;;72.30;34.33;;;10.90;99.90;;;;;;5050907;28;20351;-65
2021/11/20 03:28:35;;;;;;;67.65;31.70;;;11.00;99.90;;;;;;5048288;28;20037;-64
2021/11/20 03:31:02;;;;;;;77.32;34.78;;;11.00;99.90;;;;;;5047141;28;20491;-65
2021/11/20 03:33:27;;;;;;;81.03;35.75;;;11.10;99.90;;;;;;5048542;28;20099;-65
2021/11/20 03:35:53;;;;;;;85.38;35.67;;;11.00;99.90;;;;;;5045823;28;20469;-64
2021/11/20 03:38:19;;;;;;;76.45;36.20;;;11.00;99.90;;;;;;5032508;28;20047;-62
2021/11/20 03:40:45;;;;;;;70.28;34.38;;;11.00;99.90;;;;;;5043446;28;20029;-65
2021/11/20 03:43:11;;;;;;;72.32;33.63;;;11.00;99.90;;;;;;5043137;28;20017;-65
2021/11/20 03:45:37;;;;;;;67.22;32.33;;;11.00;99.90;;;;;;5041421;28;20058;-64
2021/11/20 03:48:05;;;;;;;73.55;34.38;;;11.10;99.90;;;;;;5046079;28;20025;-64
2021/11/20 03:50:32;;;;;;;70.70;33.40;;;11.10;99.90;;;;;;5046321;28;20059;-65
2021/11/20 03:52:57;;;;;;;76.90;34.72;;;11.00;99.90;;;;;;5048017;28;20036;-65
2021/11/20 03:55:27;;;;;;;73.88;34.97;;;11.00;99.90;;;;;;5040120;28;20030;-65
2021/11/20 03:57:53;;;;;;;73.40;34.65;;;11.00;99.90;;;;;;5050279;28;20120;-65
2021/11/20 04:00:21;;;;;;;71.63;33.13;;;11.00;99.90;;;;;;5043766;28;20043;-64
2021/11/20 04:02:49;;;;;;;76.45;35.35;;;11.00;99.90;;;;;;5044683;28;20028;-65
2021/11/20 04:05:17;;;;;;;77.97;34.13;;;11.00;99.90;;;;;;5049002;28;20017;-65
2021/11/20 04:07:43;;;;;;;78.25;35.75;;;11.00;99.90;;;;;;5040443;28;20060;-65
2021/11/20 04:10:10;;;;;;;81.30;36.55;;;11.00;99.90;;;;;;5049638;28;20047;-64
2021/11/20 04:12:36;;;;;;;83.80;37.40;;;11.00;99.90;;;;;;5044367;28;20021;-64
2021/11/20 04:15:04;;;;;;;76.95;35.13;;;11.10;99.90;;;;;;5047909;28;20083;-63
2021/11/20 04:17:29;;;;;;;73.45;35.25;;;11.00;99.90;;;;;;5041470;28;20030;-65
2021/11/20 04:19:55;;;;;;;69.75;32.95;;;11.00;99.90;;;;;;5014814;28;20016;-64
2021/11/20 04:22:20;;;;;;;72.45;33.10;;;11.00;99.90;;;;;;5045100;28;20033;-64
2021/11/20 04:24:47;;;;;;;78.50;32.67;;;11.00;99.90;;;;;;5046370;28;20032;-64
2021/11/20 04:27:12;;;;;;;71.50;33.03;;;10.90;99.90;;;;;;5046155;28;20029;-65
2021/11/20 04:29:38;;;;;;;71.43;32.92;;;11.00;99.90;;;;;;5048227;28;20422;-64
2021/11/20 04:32:05;;;;;;;74.60;34.15;;;11.00;99.90;;;;;;5047201;28;20036;-64
2021/11/20 04:34:30;;;;;;;61.47;31.27;;;11.00;99.90;;;;;;5045823;28;20388;-64
2021/11/20 04:36:56;;;;;;;75.85;33.90;;;11.00;99.90;;;;;;5048187;28;20044;-65
2021/11/20 04:39:21;;;;;;;67.35;31.42;;;11.00;99.90;;;;;;5030509;28;20491;-65
2021/11/20 04:41:47;;;;;;;74.93;34.35;;;11.00;99.90;;;;;;5040804;28;20275;-64
2021/11/20 04:44:13;;;;;;;66.60;29.67;;;10.90;99.90;;;;;;5037724;28;20036;-64
2021/11/20 04:46:38;;;;;;;63.85;31.10;;;10.90;99.90;;;;;;5044287;28;20625;-64
2021/11/20 04:49:05;;;;;;;59.40;29.58;;;10.90;99.90;;;;;;5027006;28;20036;-64
2021/11/20 04:51:31;;;;;;;68.32;31.95;;;10.90;99.90;;;;;;5048015;28;20036;-64
2021/11/20 04:53:56;;;;;;;68.63;30.63;;;10.90;99.90;;;;;;5047957;28;20117;-65
2021/11/20 04:56:25;;;;;;;64.57;30.58;;;11.00;99.90;;;;;;5045637;28;20453;-65
2021/11/20 04:58:51;;;;;;;56.60;29.45;;;11.00;99.90;;;;;;5044153;28;20372;-64
2021/11/20 05:01:19;;;;;;;55.00;29.05;;;11.00;99.90;;;;;;5041668;28;20013;-64
2021/11/20 05:03:47;;;;;;;59.65;30.50;;;11.00;99.90;;;;;;5040422;28;20127;-64
2021/11/20 05:06:13;;;;;;;62.80;29.58;;;10.90;99.90;;;;;;5041390;28;20032;-64
2021/11/20 05:08:38;;;;;;;62.63;30.40;;;11.00;99.90;;;;;;5039487;28;20025;-64
2021/11/20 05:11:06;;;;;;;63.67;30.92;;;10.90;99.90;;;;;;5024578;28;20079;-65
2021/11/20 05:13:32;;;;;;;57.28;28.92;;;10.90;99.90;;;;;;5040118;28;20036;-64
2021/11/20 05:15:58;;;;;;;60.20;29.70;;;10.90;99.90;;;;;;5048546;28;20025;-64
2021/11/20 05:18:25;;;;;;;60.25;30.00;;;10.90;99.90;;;;;;5045319;28;20090;-64
2021/11/20 05:20:52;;;;;;;58.45;29.98;;;10.90;99.90;;;;;;5049448;28;20040;-64
2021/11/20 05:23:18;;;;;;;64.50;29.63;;;10.80;99.90;;;;;;5046754;28;20526;-64
2021/11/20 05:25:45;;;;;;;53.60;27.30;;;10.80;99.90;;;;;;5049098;28;20113;-64
2021/11/20 05:28:11;;;;;;;62.47;30.02;;;10.70;99.90;;;;;;5051824;28;20112;-64
2021/11/20 05:30:40;;;;;;;57.17;29.85;;;10.80;99.90;;;;;;5049812;28;20126;-64
2021/11/20 05:33:12;;;;;;;60.83;29.55;;;10.80;99.90;;;;;;5050083;28;20029;-64
2021/11/20 05:35:38;;;;;;;61.97;29.73;;;10.70;99.90;;;;;;5047781;28;20039;-65
2021/11/20 05:38:04;;;;;;;60.13;31.02;;;10.70;99.90;;;;;;5051523;28;20029;-64
2021/11/20 05:40:31;;;;;;;58.72;29.27;;;10.70;99.90;;;;;;5052060;28;20051;-64
2021/11/20 05:42:59;;;;;;;57.10;28.75;;;10.70;99.90;;;;;;5051051;28;20511;-63
2021/11/20 05:45:29;;;;;;;57.40;28.20;;;10.60;99.90;;;;;;5050725;28;20101;-63
2021/11/20 05:47:55;;;;;;;60.50;29.27;;;10.70;99.90;;;;;;5049066;28;20390;-64
2021/11/20 05:50:22;;;;;;;61.17;29.60;;;10.60;99.90;;;;;;5048573;28;20025;-64
2021/11/20 05:52:50;;;;;;;66.53;30.58;;;10.60;99.90;;;;;;5049684;28;20518;-64
2021/11/20 05:55:17;;;;;;;66.25;29.55;;;10.50;99.90;;;;;;5051203;28;20065;-64
2021/11/20 05:57:43;;;;;;;55.45;25.77;;;10.50;99.90;;;;;;5047851;28;20525;-64
2021/11/20 06:00:14;;;;;;;58.92;27.63;;;10.50;99.90;;;;;;5049601;28;20515;-64
2021/11/20 06:02:39;;;;;;;56.80;27.38;;;10.50;99.90;;;;;;5042101;28;20060;-64
2021/11/20 06:05:06;;;;;;;58.05;28.33;;;10.50;99.90;;;;;;5050374;28;20075;-64
2021/11/20 06:07:31;;;;;;;51.63;26.55;;;10.50;99.90;;;;;;5052415;28;20032;-64
2021/11/20 06:09:57;;;;;;;53.67;26.25;;;10.40;99.90;;;;;;5047977;28;20391;-64
2021/11/20 06:12:23;;;;;;;54.38;26.55;;;10.40;99.90;;;;;;5049531;28;20518;-65
2021/11/20 06:14:49;;;;;;;58.45;28.27;;;10.40;99.90;;;;;;5046717;28;20838;-64
2021/11/20 06:17:15;;;;;;;58.10;28.75;;;10.40;99.90;;;;;;5051868;28;20116;-64
2021/11/20 06:19:40;;;;;;;53.67;25.55;;;10.40;99.90;;;;;;5050537;28;20047;-64
2021/11/20 06:22:06;;;;;;;53.00;26.92;;;10.40;99.90;;;;;;5020824;28;20025;-64
2021/11/20 06:24:31;;;;;;;56.95;27.65;;;10.50;99.90;;;;;;5050742;28;20016;-64
2021/11/20 06:26:57;;;;;;;55.30;27.33;;;10.50;99.90;;;;;;5045372;28;20032;-64
2021/11/20 06:29:24;;;;;;;52.55;26.33;;;10.50;99.90;;;;;;5050378;28;20495;-65
2021/11/20 06:31:50;;;;;;;48.22;24.35;;;10.50;99.90;;;;;;5049694;28;20098;-64
2021/11/20 06:34:20;;;;;;;49.03;25.13;;;10.50;99.90;;;;;;5050616;28;20037;-64
2021/11/20 06:36:46;;;;;;;48.95;25.33;;;10.50;99.90;;;;;;5046391;28;20375;-64
2021/11/20 06:39:12;;;;;;;56.55;26.02;;;10.50;99.90;;;;;;5048147;28;20017;-64
2021/11/20 06:41:38;;;;;;;50.88;23.02;;;10.50;99.90;;;;;;5047411;28;20488;-64
2021/11/20 06:44:05;;;;;;;48.70;22.70;;;10.50;99.90;;;;;;5050477;28;20072;-64
2021/11/20 06:46:31;;;;;;;46.35;22.80;;;10.50;99.90;;;;;;5049377;28;20040;-65
2021/11/20 06:48:56;;;;;;;43.55;22.42;;;10.50;99.90;;;;;;5049499;28;20025;-64
2021/11/20 06:51:22;;;;;;;44.90;22.92;;;10.50;99.90;;;;;;5029797;28;20065;-64
2021/11/20 06:53:48;;;;;;;50.00;23.65;;;10.50;99.90;;;;;;5047162;28;20029;-65
2021/11/20 06:56:25;;;;;;;40.28;21.58;;;10.50;99.90;;;;;;5048673;28;20037;-64
2021/11/20 07:01:17;;;;;;;48.60;22.77;;;10.50;99.90;;;;;;5045440;28;20029;-64
2021/11/20 07:03:46;;;;;;;38.97;20.88;;;10.50;99.90;;;;;;5043834;28;20033;-64
2021/11/20 07:06:19;;;;;;;39.63;21.17;;;10.50;99.90;;;;;;5044596;28;20032;-65
2021/11/20 07:08:46;;;;;;;47.05;21.58;;;10.50;99.90;;;;;;5042330;28;20073;-64
2021/11/20 07:11:12;;;;;;;43.55;20.38;;;10.40;99.90;;;;;;5044356;28;20032;-64
2021/11/20 07:13:38;;;;;;;42.10;21.77;;;10.50;99.90;;;;;;5051409;28;20055;-64
2021/11/20 07:16:05;;;;;;;41.55;20.15;;;10.50;99.90;;;;;;5049367;28;20060;-63
2021/11/20 07:18:31;;;;;;;36.22;20.20;;;10.50;99.90;;;;;;5048353;28;20017;-64
2021/11/20 07:20:57;;;;;;;41.15;20.52;;;10.50;99.90;;;;;;5052178;28;20036;-64
2021/11/20 07:23:25;;;;;;;37.25;20.98;;;10.50;99.90;;;;;;5045085;28;20032;-61
2021/11/20 07:25:51;;;;;;;38.92;21.33;;;10.50;99.90;;;;;;5045822;28;20021;-62
2021/11/20 07:28:17;;;;;;;36.72;19.58;;;10.50;99.90;;;;;;5046540;28;20037;-62
2021/11/20 07:30:43;;;;;;;36.53;19.00;;;10.60;99.90;;;;;;5046456;28;20025;-61
2021/11/20 07:33:10;;;;;;;37.60;19.95;;;10.60;99.90;;;;;;5049814;28;20037;-61
2021/11/20 07:36:03;;;;;;;39.25;20.20;;;10.60;99.90;;;;;;5047541;28;20026;-62
2021/11/20 07:38:42;;;;;;;33.13;18.42;;;10.50;99.90;;;;;;5046634;28;20025;-61
2021/11/20 07:41:09;;;;;;;35.13;18.52;;;10.60;99.90;;;;;;5049290;28;20025;-62
2021/11/20 07:43:36;;;;;;;36.33;19.27;;;10.50;99.90;;;;;;5044262;28;20028;-63
2021/11/20 07:46:04;;;;;;;34.30;18.52;;;10.50;99.90;;;;;;5048023;28;20030;-61
2021/11/20 07:48:30;;;;;;;40.78;20.67;;;10.50;99.90;;;;;;5047454;28;20059;-62
2021/11/20 07:50:57;;;;;;;37.13;19.13;;;10.50;99.90;;;;;;5048313;28;20513;-62
2021/11/20 07:53:24;;;;;;;37.13;19.73;;;10.50;99.90;;;;;;5047401;28;20037;-63
2021/11/20 07:55:50;;;;;;;43.25;21.92;;;10.50;99.90;;;;;;5047369;28;20033;-62
2021/11/20 07:58:17;;;;;;;42.65;20.67;;;10.50;99.90;;;;;;5045491;28;20483;-62
2021/11/20 08:00:44;;;;;;;42.85;22.30;;;10.50;99.90;;;;;;5050967;28;20033;-62
2021/11/20 08:03:10;;;;;;;40.15;20.60;;;10.60;99.90;;;;;;5049418;28;20098;-62
2021/11/20 08:05:37;;;;;;;35.50;19.50;;;10.60;99.90;;;;;;5050614;28;20017;-62
2021/11/20 08:08:03;;;;;;;36.65;18.67;;;10.70;99.90;;;;;;5047142;28;20041;-62
2021/11/20 08:10:31;;;;;;;40.20;21.08;;;10.70;99.90;;;;;;5048139;28;20283;-62
2021/11/20 08:12:58;;;;;;;35.25;19.58;;;10.70;99.90;;;;;;5050925;28;20486;-62
2021/11/20 08:15:25;;;;;;;45.85;22.63;;;10.70;99.90;;;;;;5042878;28;20411;-62
2021/11/20 08:17:50;;;;;;;47.38;20.80;;;10.70;99.90;;;;;;5041565;28;20028;-62
2021/11/20 08:20:18;;;;;;;52.50;26.40;;;10.60;99.90;;;;;;5044380;28;20029;-62
2021/11/20 08:22:45;;;;;;;38.17;20.70;;;10.70;99.90;;;;;;5046154;28;20398;-61
2021/11/20 08:25:14;;;;;;;40.03;21.42;;;10.70;99.90;;;;;;5045483;28;20045;-62
2021/11/20 08:27:40;;;;;;;58.33;28.30;;;10.70;99.90;;;;;;5046213;28;20025;-62
2021/11/20 08:30:09;;;;;;;55.72;24.83;;;10.70;99.90;;;;;;5050041;28;20037;-62
2021/11/20 08:32:35;;;;;;;49.42;26.73;;;10.80;99.90;;;;;;5041321;28;20082;-61
2021/11/20 08:35:00;;;;;;;51.80;27.35;;;10.80;99.90;;;;;;5044703;28;20033;-62
2021/11/20 08:37:30;;;;;;;43.40;22.60;;;10.90;99.90;;;;;;5051156;28;20029;-62
2021/11/20 08:39:58;;;;;;;49.97;24.45;;;10.90;99.90;;;;;;5065566;23;20387;-57
2021/11/20 08:42:24;;;;;;;48.00;25.02;;;10.90;99.90;;;;;;5044777;28;20028;-54
2021/11/20 08:44:50;;;;;;;51.75;24.90;;;10.90;99.90;;;;;;5050878;28;20432;-52
2021/11/20 08:47:16;;;;;;;62.25;30.98;;;10.90;99.90;;;;;;5049224;28;20041;-50
2021/11/20 08:49:42;;;;;;;53.83;26.85;;;10.90;99.90;;;;;;5036403;28;20059;-55
2021/11/20 08:52:08;;;;;;;52.47;27.27;;;10.90;99.90;;;;;;5044520;28;20028;-59
2021/11/20 08:54:35;;;;;;;53.85;26.20;;;11.00;99.90;;;;;;5041077;28;20098;-56
2021/11/20 08:57:01;;;;;;;55.60;27.83;;;11.00;99.90;;;;;;5040599;28;21514;-56
2021/11/20 08:59:29;;;;;;;55.28;26.98;;;11.00;99.90;;;;;;5039522;28;20111;-56
2021/11/20 09:02:11;;;;;;;59.35;28.90;;;11.00;99.90;;;;;;5038814;28;20037;-53
2021/11/20 09:04:45;;;;;;;51.78;25.30;;;11.00;99.90;;;;;;5042089;28;20071;-56
2021/11/20 09:07:28;;;;;;;54.85;25.08;;;11.00;99.90;;;;;;5043184;28;20052;-55
2021/11/20 09:10:11;;;;;;;51.55;24.80;;;11.00;99.90;;;;;;5040668;28;20498;-57
2021/11/20 09:12:52;;;;;;;57.40;28.42;;;11.10;99.90;;;;;;5039649;28;20033;-54
2021/11/20 09:15:27;;;;;;;57.42;29.17;;;11.10;99.90;;;;;;5038346;28;20029;-55
2021/11/20 09:17:52;;;;;;;57.72;27.00;;;11.10;99.90;;;;;;5049010;28;20425;-57
2021/11/20 09:20:20;;;;;;;54.72;25.13;;;11.10;99.90;;;;;;5046130;28;20104;-56
2021/11/20 09:22:46;;;;;;;52.90;26.15;;;11.10;99.90;;;;;;5046330;28;20112;-56
2021/11/20 09:25:13;;;;;;;54.28;26.98;;;11.10;99.90;;;;;;5047753;28;20028;-52
2021/11/20 09:27:40;;;;;;;54.88;27.27;;;11.10;99.90;;;;;;5044826;28;20025;-52
2021/11/20 09:30:13;;;;;;;57.53;27.50;;;11.10;99.90;;;;;;5045400;28;20413;-55
2021/11/20 09:32:38;;;;;;;54.17;27.45;;;11.20;99.90;;;;;;5045416;28;20116;-53
2021/11/20 09:35:05;;;;;;;51.60;26.92;;;11.20;99.90;;;;;;5046047;28;20427;-54
2021/11/20 09:37:32;;;;;;;60.78;28.77;;;11.20;99.90;;;;;;5045870;28;20022;-52
2021/11/20 09:39:57;;;;;;;52.05;26.10;;;11.20;99.90;;;;;;5040992;28;20065;-57
2021/11/20 09:42:33;;;;;;;55.13;25.50;;;11.20;99.90;;;;;;5035387;28;20092;-52
2021/11/20 09:45:05;;;;;;;57.30;28.10;;;11.30;99.90;;;;;;5041318;28;20483;-55
2021/11/20 09:48:04;;;;;;;57.88;27.10;;;11.30;99.90;;;;;;5042050;28;20475;-58
2021/11/20 09:50:58;;;;;;;54.28;26.35;;;11.30;99.90;;;;;;5029384;28;20039;-54
2021/11/20 09:53:24;;;;;;;48.53;25.98;;;11.30;99.90;;;;;;5031351;28;20044;-60
2021/11/20 09:55:54;;;;;;;46.28;24.60;;;11.30;99.90;;;;;;5029510;28;20876;-55
2021/11/20 09:58:28;;;;;;;49.55;26.40;;;11.30;99.90;;;;;;5030959;28;20136;-58
2021/11/20 10:01:32;;;;;;;53.63;25.85;;;11.30;99.90;;;;;;5030767;28;20095;-52
2021/11/20 10:03:57;;;;;;;47.13;25.38;;;11.30;99.90;;;;;;5031309;28;20450;-55
2021/11/20 10:06:27;;;;;;;52.85;25.73;;;11.30;99.90;;;;;;5032091;28;20033;-57
2021/11/20 10:09:13;;;;;;;52.05;25.75;;;11.30;99.90;;;;;;5032559;28;20025;-59
2021/11/20 10:12:00;;;;;;;51.85;26.05;;;11.40;99.90;;;;;;5031814;28;20059;-56
2021/11/20 10:14:49;;;;;;;55.10;26.50;;;11.40;99.90;;;;;;5032455;28;20244;-56
2021/11/20 10:17:26;;;;;;;53.47;25.83;;;11.40;99.90;;;;;;5031317;28;20073;-54
2021/11/20 10:20:17;;;;;;;53.80;27.85;;;11.40;99.90;;;;;;5034209;28;20418;-53
2021/11/20 10:22:55;;;;;;;49.22;25.92;;;11.30;99.90;;;;;;5034787;28;20773;-57
2021/11/20 10:25:23;;;;;;;52.95;26.42;;;11.30;99.90;;;;;;5031927;28;20025;-51
2021/11/20 10:28:10;;;;;;;49.17;25.88;;;11.30;99.90;;;;;;5032008;28;20390;-52
2021/11/20 10:30:41;;;;;;;46.80;25.08;;;11.40;99.90;;;;;;5033208;28;20025;-58
2021/11/20 10:33:10;;;;;;;45.63;24.38;;;11.40;99.90;;;;;;5032831;28;20064;-56
2021/11/20 10:35:45;;;;;;;47.25;25.15;;;11.30;99.90;;;;;;5034038;28;20040;-53
2021/11/20 10:38:20;;;;;;;46.58;25.60;;;11.30;99.90;;;;;;5032126;28;20025;-52
2021/11/20 10:40:58;;;;;;;44.60;24.52;;;11.30;99.90;;;;;;5031703;28;20025;-58
2021/11/20 10:43:24;;;;;;;44.58;23.77;;;11.30;99.90;;;;;;5030944;28;20378;-57
2021/11/20 10:46:20;;;;;;;41.58;23.15;;;11.30;99.90;;;;;;5034338;28;20048;-51
2021/11/20 10:49:13;;;;;;;42.22;23.40;;;11.40;99.90;;;;;;5032050;28;20033;-55
2021/11/20 10:51:44;;;;;;;47.55;22.73;;;11.40;99.90;;;;;;5030735;28;20042;-53
2021/11/20 10:54:34;;;;;;;43.10;22.75;;;11.40;99.90;;;;;;5032977;28;20450;-57
2021/11/20 10:57:21;;;;;;;39.13;21.90;;;11.40;99.90;;;;;;5031133;28;20029;-55
2021/11/20 10:59:49;;;;;;;36.85;20.85;;;11.40;99.90;;;;;;5029148;28;20036;-56
2021/11/20 11:02:30;;;;;;;38.85;21.02;;;11.40;99.90;;;;;;5030746;28;20021;-57
2021/11/20 11:05:36;;;;;;;37.88;21.60;;;11.40;99.90;;;;;;5033880;28;20092;-56
2021/11/20 11:08:19;;;;;;;37.95;20.77;;;11.30;99.90;;;;;;5033750;28;20461;-58
2021/11/20 11:10:49;;;;;;;39.22;21.10;;;11.30;99.90;;;;;;5034174;28;20026;-57
2021/11/20 11:13:41;;;;;;;41.83;20.40;;;11.40;99.90;;;;;;5033806;28;20025;-51
2021/11/20 11:16:45;;;;;;;36.92;20.30;;;11.40;99.90;;;;;;5005561;28;20055;-55
2021/11/20 11:19:51;;;;;;;37.83;21.23;;;11.30;99.90;;;;;;5032408;28;20037;-57
2021/11/20 11:22:33;;;;;;;35.13;19.88;;;11.40;99.90;;;;;;5033066;28;20116;-57
2021/11/20 11:25:08;;;;;;;34.80;20.02;;;11.40;99.90;;;;;;5012991;28;20033;-57
2021/11/20 11:27:49;;;;;;;35.78;19.73;;;11.40;99.90;;;;;;5033283;28;20033;-52
2021/11/20 11:30:26;;;;;;;37.65;20.85;;;11.30;99.90;;;;;;5031638;28;20068;-57
2021/11/20 11:32:54;;;;;;;34.95;19.33;;;11.30;99.90;;;;;;5032942;28;20033;-52
2021/11/20 11:35:27;;;;;;;37.97;19.15;;;11.30;99.90;;;;;;5032108;28;20039;-55
2021/11/20 11:38:23;;;;;;;36.80;18.88;;;11.30;99.90;;;;;;5033168;28;20111;-56
2021/11/20 11:40:54;;;;;;;38.90;19.65;;;11.30;99.90;;;;;;5033347;28;20662;-52
2021/11/20 11:43:43;;;;;;;36.47;18.77;;;11.30;99.90;;;;;;5031917;28;20031;-54
2021/11/20 11:46:54;;;;;;;36.53;19.63;;;11.30;99.90;;;;;;5033371;28;20710;-57
2021/11/20 11:49:58;;;;;;;34.50;18.92;;;11.30;99.90;;;;;;5032940;28;20041;-58
2021/11/20 11:52:36;;;;;;;42.10;18.27;;;11.30;99.90;;;;;;5032187;28;20036;-56
2021/11/20 11:55:10;;;;;;;32.00;17.65;;;11.30;99.90;;;;;;5032573;28;20311;-52
2021/11/20 11:57:58;;;;;;;36.47;18.50;;;11.30;99.90;;;;;;5033493;28;20034;-54
2021/11/20 12:00:47;;;;;;;33.45;18.55;;;11.30;99.90;;;;;;5032799;28;20028;-57
2021/11/20 12:03:25;;;;;;;30.10;17.10;;;11.30;99.90;;;;;;5032541;28;20136;-54
2021/11/20 12:06:03;;;;;;;35.92;18.63;;;11.30;99.90;;;;;;5032203;28;20139;-55
2021/11/20 12:08:50;;;;;;;36.47;17.70;;;11.30;99.90;;;;;;5030367;28;20059;-56
2021/11/20 12:11:28;;;;;;;30.80;18.02;;;11.30;99.90;;;;;;5031920;28;20025;-57
2021/11/20 12:14:33;;;;;;;32.03;18.70;;;11.40;99.90;;;;;;5031261;28;20086;-57
2021/11/20 12:17:31;;;;;;;33.15;17.17;;;11.30;99.90;;;;;;5032898;28;20044;-55
2021/11/20 12:20:13;;;;;;;30.52;16.30;;;11.30;99.90;;;;;;5030246;28;20032;-51
2021/11/20 12:23:34;;;;;;;30.73;17.33;;;11.30;99.90;;;;;;5032274;28;20029;-53
2021/11/20 12:26:19;;;;;;;32.10;16.63;;;11.30;99.90;;;;;;5025622;28;20511;-56
2021/11/20 12:28:51;;;;;;;;;;;11.30;99.90;;;;;;5030971;28;20042;-52
2021/11/20 12:31:56;;;;;;;34.60;16.98;;;11.30;99.90;;;;;;5031918;28;20331;-53
2021/11/20 12:34:57;;;;;;;33.63;17.92;;;11.20;99.90;;;;;;5032137;28;20075;-55
2021/11/20 12:37:35;;;;;;;28.92;16.67;;;11.20;99.90;;;;;;5032324;28;20060;-57
2021/11/20 12:40:24;;;;;;;29.42;17.00;;;11.30;99.90;;;;;;5031844;28;20128;-56
2021/11/20 12:43:11;;;;;;;33.47;18.05;;;11.20;99.90;;;;;;5033204;28;20060;-57
2021/11/20 12:45:52;;;;;;;33.08;17.13;;;11.20;99.90;;;;;;5032120;28;20482;-58
2021/11/20 12:48:51;;;;;;;31.27;17.48;;;11.20;99.90;;;;;;5031020;28;20598;-56
2021/11/20 12:51:45;;;;;;;36.50;19.25;;;11.20;99.90;;;;;;5006792;28;20041;-55
2021/11/20 12:54:22;;;;;;;32.08;18.77;;;11.20;99.90;;;;;;5031077;28;20272;-57
2021/11/20 12:56:48;;;;;;;33.97;18.80;;;11.20;99.90;;;;;;5031749;28;20041;-56